sensor_id;sensor_type;location;lat;lon;timestamp;pressure;altitude;pressure_sealevel;temperature;humidity
51452;BME280;37521;52.020;-1.740;2023-01-19T00:00:54;98919.47;;;-2.08;100.00
51452;BME280;37521;52.020;-1.740;2023-01-19T00:03:22;98915.16;;;-2.08;100.00
51452;BME280;37521;52.020;-1.740;2023-01-19T00:05:50;98917.81;;;-2.12;100.00
51452;BME280;37521;52.020;-1.740;2023-01-19T00:08:20;98920.50;;;-2.22;100.00
51452;BME280;37521;52.020;-1.740;2023-01-19T00:10:49;98916.31;;;-2.32;100.00
51452;BME280;37521;52.020;-1.740;2023-01-19T00:13:18;98927.56;;;-2.36;100.00
51452;BME280;37521;52.020;-1.740;2023-01-19T00:15:46;98921.56;;;-2.38;100.00
51452;BME280;37521;52.020;-1.740;2023-01-19T00:18:14;98938.03;;;-2.47;100.00
51452;BME280;37521;52.020;-1.740;2023-01-19T00:20:44;98937.25;;;-2.55;100.00
51452;BME280;37521;52.020;-1.740;2023-01-19T00:23:14;98931.28;;;-2.61;100.00
51452;BME280;37521;52.020;-1.740;2023-01-19T00:25:44;98930.38;;;-2.56;100.00
51452;BME280;37521;52.020;-1.740;2023-01-19T00:28:14;98929.50;;;-2.55;100.00
51452;BME280;37521;52.020;-1.740;2023-01-19T00:30:43;98927.81;;;-2.57;100.00
51452;BME280;37521;52.020;-1.740;2023-01-19T00:33:12;98927.78;;;-2.53;100.00
51452;BME280;37521;52.020;-1.740;2023-01-19T00:35:41;98926.91;;;-2.53;100.00
51452;BME280;37521;52.020;-1.740;2023-01-19T00:38:09;98925.22;;;-2.57;100.00
51452;BME280;37521;52.020;-1.740;2023-01-19T00:40:38;98932.22;;;-2.65;100.00
51452;BME280;37521;52.020;-1.740;2023-01-19T00:43:07;98924.53;;;-2.71;100.00
51452;BME280;37521;52.020;-1.740;2023-01-19T00:45:36;98929.72;;;-2.75;100.00
51452;BME280;37521;52.020;-1.740;2023-01-19T00:48:04;98926.34;;;-2.80;100.00
51452;BME280;37521;52.020;-1.740;2023-01-19T00:50:33;98926.41;;;-2.87;100.00
51452;BME280;37521;52.020;-1.740;2023-01-19T00:53:01;98930.78;;;-2.94;100.00
51452;BME280;37521;52.020;-1.740;2023-01-19T00:55:30;98923.09;;;-3.00;100.00
51452;BME280;37521;52.020;-1.740;2023-01-19T00:57:59;98924.84;;;-3.05;100.00
51452;BME280;37521;52.020;-1.740;2023-01-19T01:00:30;98925.72;;;-3.08;100.00
51452;BME280;37521;52.020;-1.740;2023-01-19T01:02:59;98924.06;;;-3.12;100.00
51452;BME280;37521;52.020;-1.740;2023-01-19T01:05:28;98923.22;;;-3.17;100.00
51452;BME280;37521;52.020;-1.740;2023-01-19T01:07:56;98930.16;;;-3.20;100.00
51452;BME280;37521;52.020;-1.740;2023-01-19T01:10:26;98918.16;;;-3.29;100.00
51452;BME280;37521;52.020;-1.740;2023-01-19T01:12:55;98925.00;;;-3.23;100.00
51452;BME280;37521;52.020;-1.740;2023-01-19T01:15:48;98929.38;;;-3.32;100.00
51452;BME280;37521;52.020;-1.740;2023-01-19T01:18:16;98926.88;;;-3.41;100.00
51452;BME280;37521;52.020;-1.740;2023-01-19T01:20:45;98932.09;;;-3.47;100.00
51452;BME280;37521;52.020;-1.740;2023-01-19T01:23:13;98929.56;;;-3.53;100.00
51452;BME280;37521;52.020;-1.740;2023-01-19T01:25:41;98930.41;;;-3.56;100.00
51452;BME280;37521;52.020;-1.740;2023-01-19T01:28:10;98922.75;;;-3.66;100.00
51452;BME280;37521;52.020;-1.740;2023-01-19T01:30:38;98931.41;;;-3.73;100.00
51452;BME280;37521;52.020;-1.740;2023-01-19T01:33:08;98932.31;;;-3.80;100.00
51452;BME280;37521;52.020;-1.740;2023-01-19T01:35:37;98933.19;;;-3.85;100.00
51452;BME280;37521;52.020;-1.740;2023-01-19T01:38:05;98927.19;;;-3.85;100.00
51452;BME280;37521;52.020;-1.740;2023-01-19T01:40:33;98924.59;;;-3.87;100.00
51452;BME280;37521;52.020;-1.740;2023-01-19T01:43:02;98926.34;;;-3.92;100.00
51452;BME280;37521;52.020;-1.740;2023-01-19T01:45:32;98927.22;;;-3.93;100.00
51452;BME280;37521;52.020;-1.740;2023-01-19T01:48:04;98923.78;;;-3.96;100.00
51452;BME280;37521;52.020;-1.740;2023-01-19T01:50:38;98926.38;;;-3.98;100.00
51452;BME280;37521;52.020;-1.740;2023-01-19T01:53:30;98937.56;;;-4.00;100.00
51452;BME280;37521;52.020;-1.740;2023-01-19T01:56:02;98927.25;;;-3.99;100.00
51452;BME280;37521;52.020;-1.740;2023-01-19T01:58:33;98927.25;;;-4.02;100.00
51452;BME280;37521;52.020;-1.740;2023-01-19T02:01:03;98931.56;;;-4.01;100.00
51452;BME280;37521;52.020;-1.740;2023-01-19T02:03:49;98922.09;;;-4.02;100.00
51452;BME280;37521;52.020;-1.740;2023-01-19T02:06:19;98929.84;;;-3.99;100.00
51452;BME280;37521;52.020;-1.740;2023-01-19T02:08:52;98934.03;;;-3.81;100.00
51452;BME280;37521;52.020;-1.740;2023-01-19T02:11:40;98938.16;;;-3.57;100.00
51452;BME280;37521;52.020;-1.740;2023-01-19T02:14:26;98933.69;;;-3.35;100.00
51452;BME280;37521;52.020;-1.740;2023-01-19T02:16:55;98932.75;;;-3.20;100.00
51452;BME280;37521;52.020;-1.740;2023-01-19T02:19:27;98944.72;;;-3.16;100.00
51452;BME280;37521;52.020;-1.740;2023-01-19T02:22:03;98942.97;;;-3.11;100.00
51452;BME280;37521;52.020;-1.740;2023-01-19T02:24:34;98942.03;;;-3.03;100.00
51452;BME280;37521;52.020;-1.740;2023-01-19T02:27:04;98942.94;;;-3.05;100.00
51452;BME280;37521;52.020;-1.740;2023-01-19T02:29:33;98945.47;;;-3.00;100.00
51452;BME280;37521;52.020;-1.740;2023-01-19T02:32:03;98942.94;;;-3.05;100.00
51452;BME280;37521;52.020;-1.740;2023-01-19T02:34:31;98943.78;;;-3.08;100.00
51452;BME280;37521;52.020;-1.740;2023-01-19T02:37:02;98944.69;;;-3.10;100.00
51452;BME280;37521;52.020;-1.740;2023-01-19T02:39:37;98943.91;;;-3.18;100.00
51452;BME280;37521;52.020;-1.740;2023-01-19T02:42:08;98940.53;;;-3.30;100.00
51452;BME280;37521;52.020;-1.740;2023-01-19T02:44:38;98941.47;;;-3.37;100.00
51452;BME280;37521;52.020;-1.740;2023-01-19T02:47:08;98942.41;;;-3.47;100.00
51452;BME280;37521;52.020;-1.740;2023-01-19T02:49:37;98938.16;;;-3.54;100.00
51452;BME280;37521;52.020;-1.740;2023-01-19T02:52:07;98944.19;;;-3.58;100.00
51452;BME280;37521;52.020;-1.740;2023-01-19T02:54:53;98942.50;;;-3.62;100.00
51452;BME280;37521;52.020;-1.740;2023-01-19T02:57:34;98938.25;;;-3.66;100.00
51452;BME280;37521;52.020;-1.740;2023-01-19T03:00:19;98943.47;;;-3.78;100.00
51452;BME280;37521;52.020;-1.740;2023-01-19T03:02:57;98941.75;;;-3.83;100.00
51452;BME280;37521;52.020;-1.740;2023-01-19T03:05:40;98944.34;;;-3.81;100.00
51452;BME280;37521;52.020;-1.740;2023-01-19T03:08:16;98952.06;;;-3.79;100.00
51452;BME280;37521;52.020;-1.740;2023-01-19T03:10:53;98949.50;;;-3.81;100.00
51452;BME280;37521;52.020;-1.740;2023-01-19T03:13:29;98936.63;;;-3.86;100.00
51452;BME280;37521;52.020;-1.740;2023-01-19T03:16:05;98934.91;;;-3.90;100.00
51452;BME280;37521;52.020;-1.740;2023-01-19T03:18:39;98934.94;;;-3.87;100.00
51452;BME280;37521;52.020;-1.740;2023-01-19T03:21:12;98940.94;;;-3.88;100.00
51452;BME280;37521;52.020;-1.740;2023-01-19T03:23:41;98938.41;;;-3.98;100.00
51452;BME280;37521;52.020;-1.740;2023-01-19T03:26:17;98937.56;;;-4.03;100.00
51452;BME280;37521;52.020;-1.740;2023-01-19T03:28:47;98936.72;;;-4.01;100.00
51452;BME280;37521;52.020;-1.740;2023-01-19T03:31:21;98928.13;;;-4.00;100.00
51452;BME280;37521;52.020;-1.740;2023-01-19T03:33:53;98928.94;;;-3.96;100.00
51452;BME280;37521;52.020;-1.740;2023-01-19T03:36:26;98935.81;;;-3.95;100.00
51452;BME280;37521;52.020;-1.740;2023-01-19T03:38:58;98929.75;;;-3.88;100.00
51452;BME280;37521;52.020;-1.740;2023-01-19T03:41:30;98931.47;;;-3.89;100.00
51452;BME280;37521;52.020;-1.740;2023-01-19T03:44:00;98933.22;;;-3.88;100.00
51452;BME280;37521;52.020;-1.740;2023-01-19T03:46:31;98937.50;;;-3.87;100.00
51452;BME280;37521;52.020;-1.740;2023-01-19T03:49:00;98933.19;;;-3.85;100.00
51452;BME280;37521;52.020;-1.740;2023-01-19T03:51:29;98928.91;;;-3.89;100.00
51452;BME280;37521;52.020;-1.740;2023-01-19T03:53:57;98929.81;;;-3.93;100.00
51452;BME280;37521;52.020;-1.740;2023-01-19T03:56:28;98926.34;;;-3.92;100.00
51452;BME280;37521;52.020;-1.740;2023-01-19T03:58:57;98923.66;;;-3.75;100.00
51452;BME280;37521;52.020;-1.740;2023-01-19T04:01:25;98925.25;;;-3.54;100.00
51452;BME280;37521;52.020;-1.740;2023-01-19T04:03:54;98925.06;;;-3.31;100.00
51452;BME280;37521;52.020;-1.740;2023-01-19T04:06:22;98923.22;;;-3.14;100.00
51452;BME280;37521;52.020;-1.740;2023-01-19T04:08:50;98925.75;;;-3.09;100.00
51452;BME280;37521;52.020;-1.740;2023-01-19T04:11:19;98924.88;;;-3.08;100.00
51452;BME280;37521;52.020;-1.740;2023-01-19T04:13:49;98932.66;;;-3.11;100.00
51452;BME280;37521;52.020;-1.740;2023-01-19T04:16:17;98922.41;;;-3.20;100.00
51452;BME280;37521;52.020;-1.740;2023-01-19T04:18:47;98931.06;;;-3.26;100.00
51452;BME280;37521;52.020;-1.740;2023-01-19T04:21:15;98927.66;;;-3.31;100.00
51452;BME280;37521;52.020;-1.740;2023-01-19T04:23:44;98923.31;;;-3.29;100.00
51452;BME280;37521;52.020;-1.740;2023-01-19T04:26:12;98919.88;;;-3.28;100.00
51452;BME280;37521;52.020;-1.740;2023-01-19T04:28:40;98923.34;;;-3.31;100.00
51452;BME280;37521;52.020;-1.740;2023-01-19T04:31:11;98919.06;;;-3.35;100.00
51452;BME280;37521;52.020;-1.740;2023-01-19T04:33:40;98917.41;;;-3.39;100.00
51452;BME280;37521;52.020;-1.740;2023-01-19T04:36:08;98913.09;;;-3.41;100.00
51452;BME280;37521;52.020;-1.740;2023-01-19T04:38:36;98917.41;;;-3.40;100.00
51452;BME280;37521;52.020;-1.740;2023-01-19T04:41:04;98915.66;;;-3.38;100.00
51452;BME280;37521;52.020;-1.740;2023-01-19T04:43:33;98913.97;;;-3.41;100.00
51452;BME280;37521;52.020;-1.740;2023-01-19T04:46:01;98915.69;;;-3.40;100.00
51452;BME280;37521;52.020;-1.740;2023-01-19T04:48:31;98913.97;;;-3.41;100.00
51452;BME280;37521;52.020;-1.740;2023-01-19T04:50:59;98920.03;;;-3.45;100.00
51452;BME280;37521;52.020;-1.740;2023-01-19T04:53:27;98908.00;;;-3.47;100.00
51452;BME280;37521;52.020;-1.740;2023-01-19T04:55:55;98921.78;;;-3.50;100.00
51452;BME280;37521;52.020;-1.740;2023-01-19T04:58:25;98917.47;;;-3.51;100.00
51452;BME280;37521;52.020;-1.740;2023-01-19T05:00:54;98911.47;;;-3.54;100.00
51452;BME280;37521;52.020;-1.740;2023-01-19T05:03:22;98914.13;;;-3.59;100.00
51452;BME280;37521;52.020;-1.740;2023-01-19T05:05:53;98915.03;;;-3.66;100.00
51452;BME280;37521;52.020;-1.740;2023-01-19T05:08:21;98921.06;;;-3.70;100.00
51452;BME280;37521;52.020;-1.740;2023-01-19T05:10:50;98921.09;;;-3.76;100.00
51452;BME280;37521;52.020;-1.740;2023-01-19T05:13:18;98913.41;;;-3.81;100.00
51452;BME280;37521;52.020;-1.740;2023-01-19T05:15:46;98916.00;;;-3.86;100.00
51452;BME280;37521;52.020;-1.740;2023-01-19T05:18:15;98915.16;;;-3.88;100.00
51452;BME280;37521;52.020;-1.740;2023-01-19T05:20:43;98916.00;;;-3.89;100.00
51452;BME280;37521;52.020;-1.740;2023-01-19T05:23:13;98917.75;;;-3.91;100.00
51452;BME280;37521;52.020;-1.740;2023-01-19T05:25:41;98920.31;;;-3.89;100.00
51452;BME280;37521;52.020;-1.740;2023-01-19T05:28:10;98916.88;;;-3.91;100.00
51452;BME280;37521;52.020;-1.740;2023-01-19T05:30:38;98916.91;;;-3.96;100.00
51452;BME280;37521;52.020;-1.740;2023-01-19T05:33:06;98918.66;;;-3.99;100.00
51452;BME280;37521;52.020;-1.740;2023-01-19T05:35:35;98917.81;;;-4.00;100.00
51452;BME280;37521;52.020;-1.740;2023-01-19T05:38:03;98913.47;;;-3.96;100.00
51452;BME280;37521;52.020;-1.740;2023-01-19T05:40:32;98916.94;;;-3.94;100.00
51452;BME280;37521;52.020;-1.740;2023-01-19T05:43:01;98913.47;;;-3.92;100.00
51452;BME280;37521;52.020;-1.740;2023-01-19T05:45:31;98913.44;;;-3.89;100.00
51452;BME280;37521;52.020;-1.740;2023-01-19T05:48:00;98917.69;;;-3.80;100.00
51452;BME280;37521;52.020;-1.740;2023-01-19T05:50:28;98914.19;;;-3.71;100.00
51452;BME280;37521;52.020;-1.740;2023-01-19T05:52:56;98913.34;;;-3.73;100.00
51452;BME280;37521;52.020;-1.740;2023-01-19T05:55:26;98914.22;;;-3.73;100.00
51452;BME280;37521;52.020;-1.740;2023-01-19T05:57:56;98916.78;;;-3.71;100.00
51452;BME280;37521;52.020;-1.740;2023-01-19T06:00:24;98917.56;;;-3.63;100.00
51452;BME280;37521;52.020;-1.740;2023-01-19T06:02:53;98914.13;;;-3.59;100.00
51452;BME280;37521;52.020;-1.740;2023-01-19T06:05:22;98913.19;;;-3.55;100.00
51452;BME280;37521;52.020;-1.740;2023-01-19T06:07:51;98919.19;;;-3.50;100.00
51452;BME280;37521;52.020;-1.740;2023-01-19T06:10:19;98920.06;;;-3.51;100.00
51452;BME280;37521;52.020;-1.740;2023-01-19T06:12:47;98914.91;;;-3.51;100.00
51452;BME280;37521;52.020;-1.740;2023-01-19T06:15:18;98914.06;;;-3.51;100.00
51452;BME280;37521;52.020;-1.740;2023-01-19T06:17:46;98912.34;;;-3.52;100.00
51452;BME280;37521;52.020;-1.740;2023-01-19T06:20:15;98914.88;;;-3.49;100.00
51452;BME280;37521;52.020;-1.740;2023-01-19T06:22:43;98915.78;;;-3.52;100.00
51452;BME280;37521;52.020;-1.740;2023-01-19T06:25:11;98913.19;;;-3.52;100.00
51452;BME280;37521;52.020;-1.740;2023-01-19T06:27:42;98910.56;;;-3.49;100.00
51452;BME280;37521;52.020;-1.740;2023-01-19T06:30:12;98901.97;;;-3.45;100.00
51452;BME280;37521;52.020;-1.740;2023-01-19T06:32:41;98908.81;;;-3.41;100.00
51452;BME280;37521;52.020;-1.740;2023-01-19T06:35:10;98906.22;;;-3.39;100.00
51452;BME280;37521;52.020;-1.740;2023-01-19T06:37:39;98912.19;;;-3.36;100.00
51452;BME280;37521;52.020;-1.740;2023-01-19T06:40:08;98908.69;;;-3.29;100.00
51452;BME280;37521;52.020;-1.740;2023-01-19T06:42:40;98918.19;;;-3.27;100.00
51452;BME280;37521;52.020;-1.740;2023-01-19T06:45:09;98912.13;;;-3.25;100.00
51452;BME280;37521;52.020;-1.740;2023-01-19T06:47:37;98912.91;;;-3.17;100.00
51452;BME280;37521;52.020;-1.740;2023-01-19T06:50:07;98912.03;;;-3.14;100.00
51452;BME280;37521;52.020;-1.740;2023-01-19T06:52:36;98918.00;;;-3.11;100.00
51452;BME280;37521;52.020;-1.740;2023-01-19T06:55:08;98915.34;;;-3.03;100.00
51452;BME280;37521;52.020;-1.740;2023-01-19T06:57:38;98913.59;;;-2.98;100.00
51452;BME280;37521;52.020;-1.740;2023-01-19T07:00:07;98913.59;;;-2.98;100.00
51452;BME280;37521;52.020;-1.740;2023-01-19T07:02:35;98917.00;;;-2.93;100.00
51452;BME280;37521;52.020;-1.740;2023-01-19T07:05:04;98918.69;;;-2.92;100.00
51452;BME280;37521;52.020;-1.740;2023-01-19T07:07:36;98923.03;;;-2.92;100.00
51452;BME280;37521;52.020;-1.740;2023-01-19T07:10:06;98922.19;;;-2.96;100.00
51452;BME280;37521;52.020;-1.740;2023-01-19T07:12:35;98922.19;;;-2.97;100.00
51452;BME280;37521;52.020;-1.740;2023-01-19T07:15:04;98923.09;;;-3.00;100.00
51452;BME280;37521;52.020;-1.740;2023-01-19T07:17:33;98922.22;;;-3.02;100.00
51452;BME280;37521;52.020;-1.740;2023-01-19T07:20:01;98922.31;;;-3.10;100.00
51452;BME280;37521;52.020;-1.740;2023-01-19T07:22:29;98923.19;;;-3.12;100.00
51452;BME280;37521;52.020;-1.740;2023-01-19T07:24:59;98922.34;;;-3.13;100.00
51452;BME280;37521;52.020;-1.740;2023-01-19T07:27:27;98924.94;;;-3.16;100.00
51452;BME280;37521;52.020;-1.740;2023-01-19T07:29:55;98920.66;;;-3.18;100.00
51452;BME280;37521;52.020;-1.740;2023-01-19T07:32:24;98925.84;;;-3.18;100.00
51452;BME280;37521;52.020;-1.740;2023-01-19T07:34:53;98924.13;;;-3.19;100.00
51452;BME280;37521;52.020;-1.740;2023-01-19T07:37:21;98936.16;;;-3.21;100.00
51452;BME280;37521;52.020;-1.740;2023-01-19T07:39:49;98933.59;;;-3.23;100.00
51452;BME280;37521;52.020;-1.740;2023-01-19T07:42:19;98931.09;;;-3.27;100.00
51452;BME280;37521;52.020;-1.740;2023-01-19T07:44:47;98938.81;;;-3.27;100.00
51452;BME280;37521;52.020;-1.740;2023-01-19T07:47:16;98934.53;;;-3.30;100.00
51452;BME280;37521;52.020;-1.740;2023-01-19T07:49:44;98943.13;;;-3.31;100.00
51452;BME280;37521;52.020;-1.740;2023-01-19T07:52:12;98941.41;;;-3.31;100.00
51452;BME280;37521;52.020;-1.740;2023-01-19T07:54:41;98943.09;;;-3.25;100.00
51452;BME280;37521;52.020;-1.740;2023-01-19T07:57:09;98943.88;;;-3.17;100.00
51452;BME280;37521;52.020;-1.740;2023-01-19T07:59:39;98939.50;;;-3.07;100.00
51452;BME280;37521;52.020;-1.740;2023-01-19T08:02:08;98938.53;;;-2.97;100.00
51452;BME280;37521;52.020;-1.740;2023-01-19T08:04:37;98943.63;;;-2.86;100.00
51452;BME280;37521;52.020;-1.740;2023-01-19T08:07:05;98946.94;;;-2.75;100.00
51452;BME280;37521;52.020;-1.740;2023-01-19T08:09:33;98945.13;;;-2.65;100.00
51452;BME280;37521;52.020;-1.740;2023-01-19T08:12:02;98939.91;;;-2.62;100.00
51452;BME280;37521;52.020;-1.740;2023-01-19T08:14:30;98939.03;;;-2.61;100.00
51452;BME280;37521;52.020;-1.740;2023-01-19T08:17:00;98936.34;;;-2.51;100.00
51452;BME280;37521;52.020;-1.740;2023-01-19T08:19:28;98948.44;;;-2.51;100.00
51452;BME280;37521;52.020;-1.740;2023-01-19T08:21:57;98951.00;;;-2.51;100.00
51452;BME280;37521;52.020;-1.740;2023-01-19T08:24:25;98954.47;;;-2.55;100.00
51452;BME280;37521;52.020;-1.740;2023-01-19T08:26:58;98946.78;;;-2.58;100.00
51452;BME280;37521;52.020;-1.740;2023-01-19T08:29:27;98946.81;;;-2.60;100.00
51452;BME280;37521;52.020;-1.740;2023-01-19T08:31:56;98961.44;;;-2.60;100.00
51452;BME280;37521;52.020;-1.740;2023-01-19T08:34:29;98958.91;;;-2.65;100.00
51452;BME280;37521;52.020;-1.740;2023-01-19T08:36:58;98953.75;;;-2.68;100.00
51452;BME280;37521;52.020;-1.740;2023-01-19T08:39:26;98954.63;;;-2.67;100.00
51452;BME280;37521;52.020;-1.740;2023-01-19T08:41:55;98954.63;;;-2.67;100.00
51452;BME280;37521;52.020;-1.740;2023-01-19T08:44:25;98958.00;;;-2.62;100.00
51452;BME280;37521;52.020;-1.740;2023-01-19T08:46:54;98970.94;;;-2.62;100.00
51452;BME280;37521;52.020;-1.740;2023-01-19T08:49:22;98970.06;;;-2.61;100.00
51452;BME280;37521;52.020;-1.740;2023-01-19T08:51:51;98970.00;;;-2.55;100.00
51452;BME280;37521;52.020;-1.740;2023-01-19T08:54:20;98971.63;;;-2.48;100.00
51452;BME280;37521;52.020;-1.740;2023-01-19T08:56:49;98972.38;;;-2.37;100.00
51452;BME280;37521;52.020;-1.740;2023-01-19T08:59:17;98967.91;;;-2.23;100.00
51452;BME280;37521;52.020;-1.740;2023-01-19T09:01:45;98973.00;;;-2.13;100.00
51452;BME280;37521;52.020;-1.740;2023-01-19T09:04:14;98953.94;;;-2.06;100.00
51452;BME280;37521;52.020;-1.740;2023-01-19T09:06:42;98962.44;;;-1.97;100.00
51452;BME280;37521;52.020;-1.740;2023-01-19T09:09:12;98959.75;;;-1.90;100.00
51452;BME280;37521;52.020;-1.740;2023-01-19T09:11:40;98958.81;;;-1.83;100.00
51452;BME280;37521;52.020;-1.740;2023-01-19T09:14:09;98962.16;;;-1.74;100.00
51452;BME280;37521;52.020;-1.740;2023-01-19T09:16:37;98958.53;;;-1.63;100.00
51452;BME280;37521;52.020;-1.740;2023-01-19T09:19:06;98952.38;;;-1.53;100.00
51452;BME280;37521;52.020;-1.740;2023-01-19T09:21:35;98963.44;;;-1.44;100.00
51452;BME280;37521;52.020;-1.740;2023-01-19T09:24:03;98964.91;;;-1.26;100.00
51452;BME280;37521;52.020;-1.740;2023-01-19T09:26:33;98970.78;;;-1.16;100.00
51452;BME280;37521;52.020;-1.740;2023-01-19T09:29:02;98968.06;;;-1.08;100.00
51452;BME280;37521;52.020;-1.740;2023-01-19T09:31:30;98970.38;;;-0.92;100.00
51452;BME280;37521;52.020;-1.740;2023-01-19T09:33:59;98970.19;;;-0.81;100.00
51452;BME280;37521;52.020;-1.740;2023-01-19T09:36:27;98972.59;;;-0.70;100.00
51452;BME280;37521;52.020;-1.740;2023-01-19T09:38:55;98973.28;;;-0.59;100.00
51452;BME280;37521;52.020;-1.740;2023-01-19T09:41:24;98967.06;;;-0.50;100.00
51452;BME280;37521;52.020;-1.740;2023-01-19T09:43:56;98972.94;;;-0.42;100.00
51452;BME280;37521;52.020;-1.740;2023-01-19T09:46:31;98980.63;;;-0.36;100.00
51452;BME280;37521;52.020;-1.740;2023-01-19T09:49:02;98977.91;;;-0.30;100.00
51452;BME280;37521;52.020;-1.740;2023-01-19T09:51:38;98989.19;;;-0.31;100.00
51452;BME280;37521;52.020;-1.740;2023-01-19T09:54:11;98980.50;;;-0.30;100.00
51452;BME280;37521;52.020;-1.740;2023-01-19T09:56:42;98984.81;;;-0.29;100.00
51452;BME280;37521;52.020;-1.740;2023-01-19T09:59:18;98994.28;;;-0.28;100.00
51452;BME280;37521;52.020;-1.740;2023-01-19T10:02:00;98989.09;;;-0.28;100.00
51452;BME280;37521;52.020;-1.740;2023-01-19T10:04:35;98990.78;;;-0.24;100.00
51452;BME280;37521;52.020;-1.740;2023-01-19T10:07:11;98987.28;;;-0.23;100.00
51452;BME280;37521;52.020;-1.740;2023-01-19T10:09:51;99007.94;;;-0.17;100.00
51452;BME280;37521;52.020;-1.740;2023-01-19T10:12:32;99005.22;;;-0.11;100.00
51452;BME280;37521;52.020;-1.740;2023-01-19T10:15:14;99007.69;;;-0.05;100.00
51452;BME280;37521;52.020;-1.740;2023-01-19T10:17:52;99006.84;;;-0.05;100.00
51452;BME280;37521;52.020;-1.740;2023-01-19T10:20:27;99007.66;;;-0.03;100.00
51452;BME280;37521;52.020;-1.740;2023-01-19T10:22:59;99015.28;;;0.05;100.00
51452;BME280;37521;52.020;-1.740;2023-01-19T10:25:30;99006.44;;;0.13;100.00
51452;BME280;37521;52.020;-1.740;2023-01-19T10:27:59;99017.53;;;0.23;100.00
51452;BME280;37521;52.020;-1.740;2023-01-19T10:30:29;99016.44;;;0.33;100.00
51452;BME280;37521;52.020;-1.740;2023-01-19T10:32:57;99022.38;;;0.38;100.00
51452;BME280;37521;52.020;-1.740;2023-01-19T10:35:27;99018.91;;;0.39;100.00
51452;BME280;37521;52.020;-1.740;2023-01-19T10:37:59;99010.16;;;0.43;100.00
51452;BME280;37521;52.020;-1.740;2023-01-19T10:40:32;99010.81;;;0.53;100.00
51452;BME280;37521;52.020;-1.740;2023-01-19T10:43:00;99018.59;;;0.54;100.00
51452;BME280;37521;52.020;-1.740;2023-01-19T10:45:31;99019.31;;;0.60;100.00
51452;BME280;37521;52.020;-1.740;2023-01-19T10:48:05;99020.94;;;0.65;100.00
51452;BME280;37521;52.020;-1.740;2023-01-19T10:50:35;99026.94;;;0.69;100.00
51452;BME280;37521;52.020;-1.740;2023-01-19T10:53:18;99020.72;;;0.76;100.00
51452;BME280;37521;52.020;-1.740;2023-01-19T10:56:08;99023.09;;;0.85;100.00
51452;BME280;37521;52.020;-1.740;2023-01-19T10:58:38;99029.84;;;0.92;100.00
51452;BME280;37521;52.020;-1.740;2023-01-19T11:01:17;99025.41;;;0.97;100.00
51452;BME280;37521;52.020;-1.740;2023-01-19T11:03:46;99028.75;;;1.02;100.00
51452;BME280;37521;52.020;-1.740;2023-01-19T11:06:21;99019.97;;;1.06;100.00
51452;BME280;37521;52.020;-1.740;2023-01-19T11:08:51;99022.47;;;1.11;100.00
51452;BME280;37521;52.020;-1.740;2023-01-19T11:11:20;99019.03;;;1.11;100.00
51452;BME280;37521;52.020;-1.740;2023-01-19T11:14:09;99021.59;;;1.12;100.00
51452;BME280;37521;52.020;-1.740;2023-01-19T11:16:45;99018.66;;;1.26;100.00
51452;BME280;37521;52.020;-1.740;2023-01-19T11:19:19;99022.44;;;1.48;100.00
51452;BME280;37521;52.020;-1.740;2023-01-19T11:21:49;99018.13;;;1.47;100.00
51452;BME280;37521;52.020;-1.740;2023-01-19T11:24:17;99017.75;;;1.62;100.00
51452;BME280;37521;52.020;-1.740;2023-01-19T11:26:49;99014.97;;;2.01;100.00
51452;BME280;37521;52.020;-1.740;2023-01-19T11:29:24;99023.66;;;2.00;100.00
51452;BME280;37521;52.020;-1.740;2023-01-19T11:32:09;99022.94;;;1.62;100.00
51452;BME280;37521;52.020;-1.740;2023-01-19T11:34:38;99036.66;;;1.35;100.00
51452;BME280;37521;52.020;-1.740;2023-01-19T11:37:25;99033.69;;;1.15;100.00
51452;BME280;37521;52.020;-1.740;2023-01-19T11:39:56;99031.28;;;1.05;100.00
51452;BME280;37521;52.020;-1.740;2023-01-19T11:42:27;99029.72;;;0.98;100.00
51452;BME280;37521;52.020;-1.740;2023-01-19T11:45:02;99033.28;;;0.94;100.00
51452;BME280;37521;52.020;-1.740;2023-01-19T11:47:37;99026.53;;;0.87;100.00
51452;BME280;37521;52.020;-1.740;2023-01-19T11:50:13;99030.00;;;0.86;100.00
51452;BME280;37521;52.020;-1.740;2023-01-19T11:52:45;99027.50;;;0.81;100.00
51452;BME280;37521;52.020;-1.740;2023-01-19T11:55:18;99036.16;;;0.82;100.00
51452;BME280;37521;52.020;-1.740;2023-01-19T11:57:50;99031.72;;;0.87;100.00
51452;BME280;37521;52.020;-1.740;2023-01-19T12:00:26;99036.75;;;0.93;100.00
51452;BME280;37521;52.020;-1.740;2023-01-19T12:03:02;99031.53;;;0.95;100.00
51452;BME280;37521;52.020;-1.740;2023-01-19T12:05:33;99029.78;;;0.95;100.00
51452;BME280;37521;52.020;-1.740;2023-01-19T12:08:04;99032.44;;;0.94;100.00
51452;BME280;37521;52.020;-1.740;2023-01-19T12:10:37;99035.13;;;0.89;100.00
51452;BME280;37521;52.020;-1.740;2023-01-19T12:13:17;99024.75;;;0.89;100.00
51452;BME280;37521;52.020;-1.740;2023-01-19T12:15:50;99026.44;;;0.90;100.00
51452;BME280;37521;52.020;-1.740;2023-01-19T12:18:24;99028.16;;;0.91;100.00
51452;BME280;37521;52.020;-1.740;2023-01-19T12:20:54;99029.00;;;0.92;100.00
51452;BME280;37521;52.020;-1.740;2023-01-19T12:23:32;99029.13;;;0.87;100.00
51452;BME280;37521;52.020;-1.740;2023-01-19T12:26:27;99027.50;;;0.81;100.00
51452;BME280;37521;52.020;-1.740;2023-01-19T12:28:58;99020.56;;;0.82;100.00
51452;BME280;37521;52.020;-1.740;2023-01-19T12:31:27;99032.66;;;0.83;100.00
51452;BME280;37521;52.020;-1.740;2023-01-19T12:37:06;99028.38;;;0.82;100.00
51452;BME280;37521;52.020;-1.740;2023-01-19T12:39:55;99030.13;;;0.80;100.00
51452;BME280;37521;52.020;-1.740;2023-01-19T12:42:25;99024.13;;;0.78;100.00
51452;BME280;37521;52.020;-1.740;2023-01-19T12:45:04;99026.75;;;0.76;100.00
51452;BME280;37521;52.020;-1.740;2023-01-19T12:47:33;99037.91;;;0.80;100.00
51452;BME280;37521;52.020;-1.740;2023-01-19T12:50:04;99029.94;;;0.89;100.00
51452;BME280;37521;52.020;-1.740;2023-01-19T12:52:38;99030.00;;;0.86;100.00
51452;BME280;37521;52.020;-1.740;2023-01-19T12:55:19;99033.66;;;0.77;100.00
51452;BME280;37521;52.020;-1.740;2023-01-19T12:57:55;99024.19;;;0.75;100.00
51452;BME280;37521;52.020;-1.740;2023-01-19T13:00:32;99021.66;;;0.72;100.00
51452;BME280;37521;52.020;-1.740;2023-01-19T13:03:02;99033.75;;;0.73;100.00
51452;BME280;37521;52.020;-1.740;2023-01-19T13:05:51;99021.66;;;0.72;100.00